Airfield :
LOGIN :

Register | Disclaimer

   EN    FR    IT 

 










Legend :    VFR   Marginal VFR   IFR   Intensive IFR   Very Intensive IFR
Visi :
Ceiling :
>= 8 km
>= 3000ft
5 to 8 km
1000 to 3000 ft
1500m to 5 km
500 to 1000 ft
800 to 1500m
200 to 500 ft
< 800m
< 200 ft
Symbols :   Thunderstorms  Fog  Heavy snow  Heavy precipitations  Wind > 20 kt
SIGMETs :     Misc.  Thunderstorms  Icing  Turbulence  Mountain Waves  Volcanic Ashes






- Airport Elevation : 659 ft
- IATA code : LYN


LFLY - Lyon Bron

CURRENT METAR :
  • 180300Z AUTO 34009KT 9999 OVC008 02/00 Q1033 TEMPO 2000 -SN BR OVC002

EXPIRED METARs :
  • 180230Z AUTO 34008KT 8000 OVC007 02/01 Q1033 TEMPO 2000 -SN BR OVC002
  • 180200Z AUTO 36009KT 9999 OVC008 02/00 Q1034 TEMPO 2000 -SN BR OVC002
  • 180130Z AUTO 36009KT 9999 OVC008 02/01 Q1034 TEMPO 2000 -SN BR OVC002
  • 180100Z AUTO 35009KT 9999 OVC008 02/01 Q1034 TEMPO 2000 -SN BR OVC002
  • 180030Z AUTO 36009KT 9999 OVC009 03/01 Q1034 TEMPO 2000 -SN BR OVC002

TAF TAF LFLY
Valid from the 18 at 00:00 until the 19 at 00:00 UTC


172300Z 1800/1824 34007KT 7000 OVC008
TEMPO 1800/1809 4000 BR OVC004
PROB30
TEMPO 1800/1808 2000 -SN BR OVC002
BECMG 1809/1811 OVC012
BECMG 1811/1813 BKN016
BECMG 1816/1819 VRB02KT CAVOK
PROB30
TEMPO 1822/1824 1000 BCFG
ATIS : +33 4 72 15 87 96



MET'MAP, your aeronautical weather chart ! - Copyright ORBIFLY December 2007 - Disclaimer

ORBIFLY MET'MAP TEAM :

Programming & Development : Alexandra Zaïnal
Concept & original design : Baudouin d'Aumeries
Assistance for programming : Marc-Olivier Méhu
Technical & hardware support : Manuel Goepfert

Contact : metmap@orbifly.com




SOURCES & CREDITS :

   NOAA